ADDS METAR Data

Data at: 2308 UTC 15 Aug 2018

METAR for:KEWR (Newark Intl, NJ, US)
Text:KEWR 152251Z 25010KT 10SM SCT055 BKN250 31/19 A2991 RMK AO2 SLP129 T03060194
Temperature: 30.6°C ( 87°F)
Dewpoint: 19.4°C ( 67°F) [RH = 51%]
Pressure (altimeter):29.91 inches Hg (1013.0 mb) [Sea level pressure: 1012.9 mb]
Winds:from the WSW (250 degrees) at 12 MPH (10 knots; 5.1 m/s)
Visibility:10 or more sm (16+ km)
Ceiling:25000 feet AGL
Clouds: scattered clouds at 5500 feet AGL, broken clouds at 25000 feet AGL